Letzte 24h
Datum & Zeit Temp. Luft-
feuchte
Wind Nieder-
schlag
Luftdruck Tendenz
IN OUT IN OUT Richtung Min. Max.
2024.06.13 06:58 17.4 °C 12.5 °C 56% 95% S 180 ° 0 km/h 1 km/h 0.0 mm 1019.30 hPa langsam fallend
07:58 17.5 °C 13.2 °C 57% 93% S 180 ° 0 km/h 1 km/h 0.0 mm 1019.50 hPa langsam steigend
08:57 17.9 °C 13.6 °C 57% 83% S 180 ° 0 km/h 4 km/h 0.0 mm 1019.70 hPa langsam steigend
09:55 18.2 °C 14.1 °C 57% 76% W 259 ° 5 km/h 15 km/h 0.0 mm 1019.70 hPa langsam steigend
10:56 18.9 °C 16.8 °C 57% 65% W 277 ° 4 km/h 12 km/h 0.0 mm 1019.50 hPa gleichbleibend
11:56 20.3 °C 18.2 °C 55% 60% WNW 283 ° 3 km/h 11 km/h 0.0 mm 1019.20 hPa langsam fallend
12:56 21.7 °C 19.2 °C 50% 54% WNW 299 ° 4 km/h 12 km/h 0.0 mm 1019.00 hPa langsam fallend
13:56 22.5 °C 20.5 °C 48% 51% NW 318 ° 3 km/h 12 km/h 0.0 mm 1018.60 hPa langsam fallend
14:56 23.7 °C 18.0 °C 46% 58% WNW 299 ° 4 km/h 16 km/h 0.0 mm 1019.00 hPa langsam fallend
15:56 23.4 °C 17.7 °C 47% 61% NNW 337 ° 3 km/h 13 km/h 0.0 mm 1019.10 hPa langsam steigend
16:56 23.2 °C 20.5 °C 46% 55% NO 45 ° 0 km/h 6 km/h 0.0 mm 1019.00 hPa langsam steigend
17:56 22.5 °C 16.8 °C 44% 61% W 270 ° 0 km/h 5 km/h 0.0 mm 1019.10 hPa langsam steigend
18:57 21.2 °C 16.8 °C 49% 69% NW 313 ° 6 km/h 18 km/h 0.0 mm 1019.20 hPa langsam steigend
19:57 20.5 °C 15.7 °C 51% 74% N 360 ° 2 km/h 11 km/h 0.0 mm 1019.20 hPa langsam steigend
20:57 20.5 °C 13.8 °C 51% 77% SW 225 ° 0 km/h 4 km/h 0.0 mm 1019.40 hPa langsam steigend
21:57 20.0 °C 12.3 °C 51% 81% SW 223 ° 2 km/h 10 km/h 0.0 mm 1019.90 hPa langsam steigend
22:55 19.3 °C 14.4 °C 51% 72% SW 223 ° 3 km/h 15 km/h 0.0 mm 1020.30 hPa langsam steigend
23:59 18.9 °C 12.3 °C 53% 79% WNW 295 ° 1 km/h 13 km/h 0.0 mm 1020.20 hPa langsam steigend
2024.06.14 00:59 18.5 °C 10.8 °C 52% 88% S 180 ° 0 km/h 1 km/h 0.0 mm 1019.80 hPa langsam fallend
01:59 18.1 °C 11.0 °C 52% 90% SW 225 ° 0 km/h 4 km/h 0.0 mm 1019.60 hPa langsam fallend
02:59 17.6 °C 10.0 °C 51% 89% WSW 240 ° 1 km/h 7 km/h 0.0 mm 1019.60 hPa langsam fallend
03:59 17.2 °C 10.4 °C 50% 92% S 180 ° 0 km/h 1 km/h 0.0 mm 1019.20 hPa langsam fallend
04:59 16.8 °C 8.9 °C 51% 95% S 180 ° 0 km/h 1 km/h 0.0 mm 1019.30 hPa langsam fallend
05:59 16.6 °C 12.2 °C 53% 93% S 180 ° 0 km/h 1 km/h 0.0 mm 1019.20 hPa langsam fallend

 

Verlauf: letzte 24h
WIND   Windrose
(Klicke ins Bild, um den Hintergrund abzuschalten)
WIND   Windverkauf 2.5h
TEMP   Temperatur 2.5h
Druck   Luftdruck 2.5h
Regen   Luftdruck 2.5h